Time,TemperatureF,DewpointF,PressureIn,WindDirection,WindDirectionDegrees,WindSpeedMPH,WindSpeedGustMPH,Humidity,HourlyPrecipIn,Conditions,Clouds,dailyrainin,SoftwareType,DateUTC
2013-05-17 00:03:00,76.3,73.0,29.96,SE,134,0.0,0.0,89,0.00,,,0.00,weatherlink.com 1.10,2013-05-17 04:03:00,
2013-05-17 00:18:00,76.3,73.0,29.96,SE,134,0.0,1.0,89,0.00,,,0.00,weatherlink.com 1.10,2013-05-17 04:18:00,
2013-05-17 00:32:00,75.8,72.0,29.96,SE,127,0.0,1.0,89,0.00,,,0.00,weatherlink.com 1.10,2013-05-17 04:32:00,
2013-05-17 00:48:00,75.6,73.0,29.95,ESE,120,0.0,1.0,90,0.00,,,0.00,weatherlink.com 1.10,2013-05-17 04:48:00,
2013-05-17 01:03:00,75.2,72.0,29.95,ESE,120,0.0,0.0,90,0.00,,,0.00,weatherlink.com 1.10,2013-05-17 05:03:00,
2013-05-17 01:18:00,75.0,72.0,29.95,SE,133,0.0,2.0,90,0.00,,,0.00,weatherlink.com 1.10,2013-05-17 05:18:00,
2013-05-17 01:33:00,75.0,72.0,29.94,SE,132,0.0,1.0,90,0.00,,,0.00,weatherlink.com 1.10,2013-05-17 05:33:00,
2013-05-17 01:48:00,74.9,72.0,29.94,SE,131,0.0,2.0,90,0.00,,,0.00,weatherlink.com 1.10,2013-05-17 05:48:00,
2013-05-17 02:03:00,74.9,72.0,29.93,SE,140,3.0,3.0,89,0.00,,,0.00,weatherlink.com 1.10,2013-05-17 06:03:00,
2013-05-17 02:18:00,74.9,72.0,29.93,SE,134,1.0,3.0,89,0.00,,,0.00,weatherlink.com 1.10,2013-05-17 06:18:00,
2013-05-17 02:33:00,74.8,72.0,29.93,SE,128,1.0,3.0,90,0.00,,,0.00,weatherlink.com 1.10,2013-05-17 06:33:00,
2013-05-17 02:48:00,74.5,72.0,29.92,SE,128,0.0,1.0,90,0.00,,,0.00,weatherlink.com 1.10,2013-05-17 06:48:00,
2013-05-17 03:03:00,74.3,72.0,29.92,SE,128,1.0,1.0,91,0.00,,,0.00,weatherlink.com 1.10,2013-05-17 07:03:00,
2013-05-17 03:18:00,74.5,72.0,29.92,SSE,148,1.0,2.0,90,0.00,,,0.00,weatherlink.com 1.10,2013-05-17 07:18:00,
2013-05-17 03:33:00,74.9,72.0,29.92,SE,135,1.0,2.0,89,0.00,,,0.00,weatherlink.com 1.10,2013-05-17 07:33:00,
2013-05-17 03:48:00,74.8,71.0,29.92,SE,135,0.0,1.0,89,0.00,,,0.00,weatherlink.com 1.10,2013-05-17 07:48:00,
2013-05-17 04:03:00,74.5,71.0,29.93,SE,136,0.0,1.0,89,0.00,,,0.00,weatherlink.com 1.10,2013-05-17 08:03:00,
2013-05-17 04:18:00,74.1,71.0,29.93,SE,136,0.0,1.0,90,0.00,,,0.00,weatherlink.com 1.10,2013-05-17 08:18:00,
2013-05-17 04:33:00,74.4,71.0,29.93,SE,134,0.0,2.0,90,0.00,,,0.00,weatherlink.com 1.10,2013-05-17 08:33:00,
2013-05-17 04:48:00,74.5,72.0,29.93,SE,136,1.0,1.0,90,0.00,,,0.00,weatherlink.com 1.10,2013-05-17 08:48:00,
2013-05-17 05:03:00,74.4,71.0,29.94,SE,143,0.0,3.0,90,0.00,,,0.00,weatherlink.com 1.10,2013-05-17 09:03:00,
2013-05-17 05:18:00,74.1,71.0,29.94,SE,134,0.0,2.0,90,0.00,,,0.00,weatherlink.com 1.10,2013-05-17 09:18:00,
2013-05-17 05:33:00,73.7,71.0,29.94,SE,143,0.0,2.0,90,0.00,,,0.00,weatherlink.com 1.10,2013-05-17 09:33:00,
2013-05-17 05:48:00,73.5,71.0,29.95,SE,139,0.0,1.0,91,0.00,,,0.00,weatherlink.com 1.10,2013-05-17 09:48:00,
2013-05-17 06:03:00,73.4,71.0,29.95,SE,139,0.0,1.0,91,0.00,,,0.00,weatherlink.com 1.10,2013-05-17 10:03:00,
2013-05-17 06:18:00,73.4,71.0,29.95,SE,140,0.0,0.0,91,0.00,,,0.00,weatherlink.com 1.10,2013-05-17 10:18:00,
2013-05-17 06:33:00,73.9,71.0,29.96,SE,140,0.0,1.0,91,0.00,,,0.00,weatherlink.com 1.10,2013-05-17 10:33:00,
2013-05-17 06:48:00,76.3,73.0,29.96,SE,139,0.0,1.0,88,0.00,,,0.00,weatherlink.com 1.10,2013-05-17 10:48:00,
2013-05-17 07:03:00,76.7,72.0,29.97,SE,135,0.0,1.0,86,0.00,,,0.00,weatherlink.com 1.10,2013-05-17 11:03:00,
2013-05-17 07:18:00,79.6,74.0,29.98,SE,136,0.0,1.0,83,0.00,,,0.00,weatherlink.com 1.10,2013-05-17 11:18:00,
2013-05-17 07:33:00,81.9,75.0,29.98,SE,141,1.0,2.0,80,0.00,,,0.00,weatherlink.com 1.10,2013-05-17 11:33:00,
2013-05-17 07:48:00,82.6,75.0,29.98,East,86,1.0,2.0,78,0.00,,,0.00,weatherlink.com 1.10,2013-05-17 11:48:00,
2013-05-17 08:03:00,82.2,76.0,29.98,East,98,0.0,3.0,80,0.00,,,0.00,weatherlink.com 1.10,2013-05-17 12:03:00,
2013-05-17 08:18:00,81.8,76.0,29.98,ESE,103,1.0,4.0,81,0.00,,,0.00,weatherlink.com 1.10,2013-05-17 12:18:00,
2013-05-17 08:33:00,81.1,75.0,29.98,East,88,6.0,6.0,81,0.00,,,0.00,weatherlink.com 1.10,2013-05-17 12:33:00,
2013-05-17 08:48:00,82.0,75.0,29.98,ESE,107,5.0,8.0,80,0.00,,,0.00,weatherlink.com 1.10,2013-05-17 12:48:00,
2013-05-17 09:03:00,83.0,75.0,29.98,East,98,6.0,8.0,77,0.00,,,0.00,weatherlink.com 1.10,2013-05-17 13:03:00,
2013-05-17 09:18:00,83.4,75.0,29.98,East,95,3.0,9.0,75,0.00,,,0.00,weatherlink.com 1.10,2013-05-17 13:18:00,
2013-05-17 09:33:00,83.1,74.0,29.98,East,101,6.0,13.0,75,0.00,,,0.00,weatherlink.com 1.10,2013-05-17 13:33:00,
2013-05-17 09:48:00,84.0,75.0,29.98,NE,38,8.0,10.0,73,0.00,,,0.00,weatherlink.com 1.10,2013-05-17 13:48:00,
2013-05-17 10:03:00,84.7,74.0,29.98,East,79,10.0,12.0,71,0.00,,,0.00,weatherlink.com 1.10,2013-05-17 14:03:00,
2013-05-17 10:18:00,83.9,73.0,29.98,East,98,5.0,12.0,70,0.00,,,0.00,weatherlink.com 1.10,2013-05-17 14:18:00,
2013-05-17 10:48:00,85.1,74.0,29.98,ENE,62,4.0,14.0,70,0.00,,,0.00,weatherlink.com 1.10,2013-05-17 14:48:00,
2013-05-17 11:03:00,85.1,75.0,29.98,East,89,3.0,15.0,71,0.00,,,0.00,weatherlink.com 1.10,2013-05-17 15:03:00,
2013-05-17 11:18:00,85.8,74.0,29.98,NE,46,7.0,12.0,68,0.00,,,0.00,weatherlink.com 1.10,2013-05-17 15:18:00,
2013-05-17 11:33:00,85.5,73.0,29.98,SE,127,5.0,13.0,67,0.00,,,0.00,weatherlink.com 1.10,2013-05-17 15:33:00,
2013-05-17 11:48:00,86.7,74.0,29.98,ENE,61,11.0,15.0,67,0.00,,,0.00,weatherlink.com 1.10,2013-05-17 15:48:00,
2013-05-17 12:04:00,86.0,75.0,29.97,NNE,27,4.0,11.0,69,0.00,,,0.00,weatherlink.com 1.10,2013-05-17 16:04:00,
2013-05-17 12:19:00,86.0,75.0,29.98,East,94,10.0,13.0,70,0.00,,,0.00,weatherlink.com 1.10,2013-05-17 16:19:00,
2013-05-17 12:34:00,86.0,75.0,29.97,NNW,344,4.0,14.0,69,0.00,,,0.00,weatherlink.com 1.10,2013-05-17 16:34:00,
2013-05-17 12:49:00,86.1,76.0,29.97,ESE,115,6.0,12.0,71,0.00,,,0.00,weatherlink.com 1.10,2013-05-17 16:49:00,
2013-05-17 13:05:00,85.5,75.0,29.97,NE,47,4.0,15.0,70,0.00,,,0.00,weatherlink.com 1.10,2013-05-17 17:05:00,
2013-05-17 13:19:00,84.7,76.0,29.97,East,94,5.0,15.0,74,0.00,,,0.00,weatherlink.com 1.10,2013-05-17 17:19:00,
2013-05-17 13:34:00,84.8,76.0,29.97,NE,49,6.0,13.0,74,0.00,,,0.00,weatherlink.com 1.10,2013-05-17 17:34:00,
2013-05-17 13:49:00,85.7,74.0,29.96,ENE,70,5.0,12.0,69,0.00,,,0.00,weatherlink.com 1.10,2013-05-17 17:49:00,
2013-05-17 14:04:00,85.0,74.0,29.96,East,101,7.0,14.0,69,0.00,,,0.00,weatherlink.com 1.10,2013-05-17 18:04:00,
2013-05-17 14:19:00,84.8,74.0,29.94,East,80,4.0,11.0,70,0.00,,,0.00,weatherlink.com 1.10,2013-05-17 18:19:00,
2013-05-17 14:34:00,85.3,75.0,29.94,NE,35,6.0,10.0,70,0.00,,,0.00,weatherlink.com 1.10,2013-05-17 18:34:00,
2013-05-17 14:49:00,85.7,74.0,29.93,East,81,9.0,13.0,69,0.00,,,0.00,weatherlink.com 1.10,2013-05-17 18:49:00,
2013-05-17 15:04:00,86.1,74.0,29.93,NE,53,6.0,12.0,68,0.00,,,0.00,weatherlink.com 1.10,2013-05-17 19:04:00,
2013-05-17 15:19:00,86.0,75.0,29.93,East,90,5.0,12.0,69,0.00,,,0.00,weatherlink.com 1.10,2013-05-17 19:19:00,
2013-05-17 15:34:00,85.4,75.0,29.93,ENE,65,8.0,13.0,71,0.00,,,0.00,weatherlink.com 1.10,2013-05-17 19:34:00,
2013-05-17 15:49:00,85.1,74.0,29.94,ENE,58,7.0,12.0,70,0.00,,,0.00,weatherlink.com 1.10,2013-05-17 19:49:00,
2013-05-17 16:04:00,85.1,75.0,29.93,East,88,4.0,11.0,72,0.00,,,0.00,weatherlink.com 1.10,2013-05-17 20:04:00,
2013-05-17 16:19:00,84.6,74.0,29.94,East,92,12.0,16.0,71,0.00,,,0.00,weatherlink.com 1.10,2013-05-17 20:19:00,
2013-05-17 16:34:00,83.8,74.0,29.94,ENE,73,6.0,14.0,73,0.00,,,0.00,weatherlink.com 1.10,2013-05-17 20:34:00,
2013-05-17 16:49:00,83.6,75.0,29.94,East,96,5.0,12.0,74,0.00,,,0.00,weatherlink.com 1.10,2013-05-17 20:49:00,
2013-05-17 17:04:00,83.7,74.0,29.94,East,80,4.0,11.0,73,0.00,,,0.00,weatherlink.com 1.10,2013-05-17 21:04:00,
2013-05-17 17:19:00,83.9,74.0,29.94,ENE,69,6.0,13.0,71,0.00,,,0.00,weatherlink.com 1.10,2013-05-17 21:19:00,
2013-05-17 17:34:00,83.4,74.0,29.95,East,87,4.0,11.0,74,0.00,,,0.00,weatherlink.com 1.10,2013-05-17 21:34:00,
2013-05-17 17:49:00,83.7,74.0,29.95,East,94,10.0,10.0,73,0.00,,,0.00,weatherlink.com 1.10,2013-05-17 21:49:00,
2013-05-17 18:04:00,82.9,74.0,29.95,East,89,3.0,9.0,74,0.00,,,0.00,weatherlink.com 1.10,2013-05-17 22:04:00,
2013-05-17 18:19:00,82.3,74.0,29.95,East,82,4.0,10.0,77,0.00,,,0.00,weatherlink.com 1.10,2013-05-17 22:19:00,
2013-05-17 18:34:00,81.7,74.0,29.96,NE,56,7.0,8.0,77,0.00,,,0.00,weatherlink.com 1.10,2013-05-17 22:34:00,
2013-05-17 18:49:00,81.5,74.0,29.96,ESE,108,2.0,8.0,78,0.00,,,0.00,weatherlink.com 1.10,2013-05-17 22:49:00,
2013-05-17 19:04:00,81.3,74.0,29.97,ESE,112,2.0,6.0,78,0.00,,,0.00,weatherlink.com 1.10,2013-05-17 23:04:00,
2013-05-17 19:19:00,81.0,74.0,29.97,ESE,106,4.0,7.0,78,0.00,,,0.00,weatherlink.com 1.10,2013-05-17 23:19:00,
2013-05-17 19:34:00,80.8,74.0,29.98,SE,132,1.0,6.0,79,0.00,,,0.00,weatherlink.com 1.10,2013-05-17 23:34:00,
2013-05-17 19:49:00,80.5,73.0,29.98,East,96,7.0,7.0,79,0.00,,,0.00,weatherlink.com 1.10,2013-05-17 23:49:00,
2013-05-17 20:04:00,80.4,74.0,29.98,SSE,148,3.0,5.0,80,0.00,,,0.00,weatherlink.com 1.10,2013-05-18 00:04:00,
2013-05-17 20:19:00,80.1,73.0,29.99,ENE,75,2.0,6.0,80,0.00,,,0.00,weatherlink.com 1.10,2013-05-18 00:19:00,
2013-05-17 20:34:00,79.9,74.0,29.99,SE,131,0.0,2.0,81,0.00,,,0.00,weatherlink.com 1.10,2013-05-18 00:34:00,
2013-05-17 20:49:00,79.7,73.0,30.00,ENE,77,2.0,3.0,81,0.00,,,0.00,weatherlink.com 1.10,2013-05-18 00:49:00,
2013-05-17 21:04:00,79.4,74.0,30.00,East,96,0.0,2.0,82,0.00,,,0.00,weatherlink.com 1.10,2013-05-18 01:04:00,
2013-05-17 21:19:00,78.7,74.0,30.00,East,94,0.0,1.0,84,0.00,,,0.00,weatherlink.com 1.10,2013-05-18 01:19:00,
2013-05-17 21:34:00,78.4,73.0,30.00,East,96,0.0,1.0,84,0.00,,,0.00,weatherlink.com 1.10,2013-05-18 01:34:00,
2013-05-17 21:49:00,78.4,74.0,30.01,East,88,0.0,2.0,85,0.00,,,0.00,weatherlink.com 1.10,2013-05-18 01:49:00,
2013-05-17 22:04:00,78.0,74.0,30.01,ESE,122,1.0,2.0,86,0.00,,,0.00,weatherlink.com 1.10,2013-05-18 02:04:00,
2013-05-17 22:19:00,77.5,73.0,30.01,SE,136,1.0,2.0,86,0.00,,,0.00,weatherlink.com 1.10,2013-05-18 02:19:00,
2013-05-17 22:34:00,77.3,73.0,30.01,SE,128,1.0,2.0,87,0.00,,,0.00,weatherlink.com 1.10,2013-05-18 02:34:00,
2013-05-17 22:49:00,76.8,73.0,30.02,SE,134,0.0,2.0,88,0.00,,,0.00,weatherlink.com 1.10,2013-05-18 02:49:00,
2013-05-17 23:04:00,76.6,73.0,30.02,SE,136,0.0,1.0,88,0.00,,,0.00,weatherlink.com 1.10,2013-05-18 03:04:00,
2013-05-17 23:19:00,76.9,73.0,30.02,SE,134,0.0,1.0,87,0.00,,,0.00,weatherlink.com 1.10,2013-05-18 03:19:00,
2013-05-17 23:34:00,76.8,73.0,30.02,SE,134,0.0,1.0,87,0.00,,,0.00,weatherlink.com 1.10,2013-05-18 03:34:00,
2013-05-17 23:49:00,76.1,72.0,30.01,SE,134,0.0,2.0,87,0.00,,,0.00,weatherlink.com 1.10,2013-05-18 03:49:00,